Time,TemperatureF,DewpointF,PressureIn,WindDirection,WindDirectionDegrees,WindSpeedMPH,WindSpeedGustMPH,Humidity,HourlyPrecipIn,Conditions,Clouds,dailyrainin,SoftwareType,DateUTC
2013-03-09 00:00:00,0.0,0.0,30.23,North,0,0.0,0.0,0,0.00,,---,0.00,VWS V14.01,2013-03-09 05:00:00,
2013-03-09 00:30:00,0.0,0.0,30.23,North,0,0.0,0.0,0,0.00,,---,0.00,VWS V14.01,2013-03-09 05:30:00,
2013-03-09 01:00:00,0.0,0.0,30.22,North,0,0.0,0.0,0,0.00,,---,0.00,VWS V14.01,2013-03-09 06:00:00,
2013-03-09 01:30:00,0.0,0.0,30.22,North,0,0.0,0.0,0,0.00,,---,0.00,VWS V14.01,2013-03-09 06:30:00,
2013-03-09 02:00:00,0.0,0.0,30.23,North,0,0.0,0.0,0,0.00,,---,0.00,VWS V14.01,2013-03-09 07:00:00,
2013-03-09 02:30:00,0.0,0.0,30.23,North,0,0.0,0.0,0,0.00,,---,0.00,VWS V14.01,2013-03-09 07:30:00,
2013-03-09 03:00:00,0.0,0.0,30.21,North,0,0.0,0.0,0,0.00,,---,0.00,VWS V14.01,2013-03-09 08:00:00,
2013-03-09 03:30:00,0.0,0.0,30.21,North,0,0.0,0.0,0,0.00,,---,0.00,VWS V14.01,2013-03-09 08:30:00,
2013-03-09 04:00:00,0.0,0.0,30.23,North,0,0.0,0.0,0,0.00,,---,0.00,VWS V14.01,2013-03-09 09:00:00,
2013-03-09 04:30:00,0.0,0.0,30.23,North,0,0.0,0.0,0,0.00,,---,0.00,VWS V14.01,2013-03-09 09:30:00,
2013-03-09 05:00:00,0.0,0.0,30.24,North,0,0.0,0.0,0,0.00,,---,0.00,VWS V14.01,2013-03-09 10:00:00,
2013-03-09 05:30:00,0.0,0.0,30.23,North,0,0.0,0.0,0,0.00,,---,0.00,VWS V14.01,2013-03-09 10:30:00,
2013-03-09 06:00:00,0.0,0.0,30.25,North,0,0.0,0.0,0,0.00,,---,0.00,VWS V14.01,2013-03-09 11:00:00,
2013-03-09 06:30:00,0.0,0.0,30.25,North,0,0.0,0.0,0,0.00,,---,0.00,VWS V14.01,2013-03-09 11:30:00,
2013-03-09 07:00:00,0.0,0.0,30.26,North,0,0.0,0.0,0,0.00,,---,0.00,VWS V14.01,2013-03-09 12:00:00,
2013-03-09 07:30:00,0.0,0.0,30.26,North,0,0.0,0.0,0,0.00,,---,0.00,VWS V14.01,2013-03-09 12:30:00,
2013-03-09 08:00:00,0.0,0.0,30.27,North,0,0.0,0.0,0,0.00,,---,0.00,VWS V14.01,2013-03-09 13:00:00,
2013-03-09 08:30:00,0.0,0.0,30.28,North,0,0.0,0.0,0,0.00,,---,0.00,VWS V14.01,2013-03-09 13:30:00,
2013-03-09 09:00:00,0.0,0.0,30.28,North,0,0.0,0.0,0,0.00,,---,0.00,VWS V14.01,2013-03-09 14:00:00,
2013-03-09 09:30:00,0.0,0.0,30.29,North,0,0.0,0.0,0,0.00,,---,0.00,VWS V14.01,2013-03-09 14:30:00,
2013-03-09 10:00:00,0.0,0.0,30.29,North,0,0.0,0.0,0,0.00,,---,0.00,VWS V14.01,2013-03-09 15:00:00,
2013-03-09 10:30:00,0.0,0.0,30.29,North,0,0.0,0.0,0,0.00,,---,0.00,VWS V14.01,2013-03-09 15:30:00,
2013-03-09 11:00:00,0.0,0.0,30.28,North,0,0.0,0.0,0,0.00,,---,0.00,VWS V14.01,2013-03-09 16:00:00,
2013-03-09 11:30:00,0.0,0.0,30.28,North,0,0.0,0.0,0,0.00,,---,0.00,VWS V14.01,2013-03-09 16:30:00,
2013-03-09 12:00:00,0.0,0.0,30.28,North,0,0.0,0.0,0,0.00,,---,0.00,VWS V14.01,2013-03-09 17:00:00,
2013-03-09 12:30:00,0.0,0.0,30.24,North,0,0.0,0.0,0,0.00,,---,0.00,VWS V14.01,2013-03-09 17:30:00,
2013-03-09 12:52:00,0.0,0.0,30.28,North,0,0.0,0.0,0,0.00,,---,0.00,VWS V14.01,2013-03-09 17:52:00,
2013-03-09 12:57:00,0.0,0.0,30.26,North,0,0.0,0.0,0,0.00,,---,0.00,VWS V14.01,2013-03-09 17:57:00,
2013-03-09 13:00:00,0.0,0.0,30.26,North,0,0.0,0.0,0,0.00,,---,0.00,VWS V14.01,2013-03-09 18:00:00,
2013-03-09 13:02:00,0.0,0.0,30.26,North,0,0.0,0.0,0,0.00,,---,0.00,VWS V14.01,2013-03-09 18:02:00,
2013-03-09 13:07:00,0.0,0.0,30.26,North,0,0.0,0.0,0,0.00,,---,0.00,VWS V14.01,2013-03-09 18:07:00,
2013-03-09 13:12:00,0.0,0.0,30.25,North,0,0.0,0.0,0,0.00,,---,0.00,VWS V14.01,2013-03-09 18:12:00,
2013-03-09 13:17:00,0.0,0.0,30.25,North,0,0.0,0.0,0,0.00,,---,0.00,VWS V14.01,2013-03-09 18:17:00,
2013-03-09 13:22:00,0.0,0.0,30.24,North,0,0.0,0.0,0,0.00,,---,0.00,VWS V14.01,2013-03-09 18:22:00,
2013-03-09 13:27:00,0.0,0.0,30.24,North,0,0.0,0.0,0,0.00,,---,0.00,VWS V14.01,2013-03-09 18:27:00,
2013-03-09 13:30:00,0.0,0.0,30.24,North,0,0.0,0.0,0,0.00,,---,0.00,VWS V14.01,2013-03-09 18:30:00,
2013-03-09 13:32:00,0.0,0.0,30.24,North,0,0.0,0.0,0,0.00,,---,0.00,VWS V14.01,2013-03-09 18:32:00,
2013-03-09 13:37:00,0.0,0.0,30.24,North,0,0.0,0.0,0,0.00,,---,0.00,VWS V14.01,2013-03-09 18:37:00,
2013-03-09 13:42:00,0.0,0.0,30.24,North,0,0.0,0.0,0,0.00,,---,0.00,VWS V14.01,2013-03-09 18:42:00,
2013-03-09 13:46:00,0.0,0.0,30.24,North,0,0.0,0.0,0,0.00,,---,0.00,VWS V14.01,2013-03-09 18:46:00,
2013-03-09 13:51:00,0.0,0.0,30.24,North,0,0.0,0.0,0,0.00,,---,0.00,VWS V14.01,2013-03-09 18:51:00,
2013-03-09 13:56:00,0.0,0.0,30.24,North,0,0.0,0.0,0,0.00,,---,0.00,VWS V14.01,2013-03-09 18:56:00,
2013-03-09 14:00:00,0.0,0.0,30.24,North,0,0.0,0.0,0,0.00,,---,0.00,VWS V14.01,2013-03-09 19:00:00,
2013-03-09 14:02:00,0.0,0.0,30.24,North,0,0.0,0.0,0,0.00,,---,0.00,VWS V14.01,2013-03-09 19:02:00,
2013-03-09 14:07:00,0.0,0.0,30.24,North,0,0.0,0.0,0,0.00,,---,0.00,VWS V14.01,2013-03-09 19:07:00,
2013-03-09 14:12:00,0.0,0.0,30.24,North,0,0.0,0.0,0,0.00,,---,0.00,VWS V14.01,2013-03-09 19:12:00,
2013-03-09 14:17:00,0.0,0.0,30.23,North,0,0.0,0.0,0,0.00,,---,0.00,VWS V14.01,2013-03-09 19:17:00,
2013-03-09 14:22:00,0.0,0.0,30.23,North,0,0.0,0.0,0,0.00,,---,0.00,VWS V14.01,2013-03-09 19:22:00,
2013-03-09 14:27:00,0.0,0.0,30.23,North,0,0.0,0.0,0,0.00,,---,0.00,VWS V14.01,2013-03-09 19:27:00,
2013-03-09 14:30:00,0.0,0.0,30.23,North,0,0.0,0.0,0,0.00,,---,0.00,VWS V14.01,2013-03-09 19:30:00,
2013-03-09 14:32:00,0.0,0.0,30.23,North,0,0.0,0.0,0,0.00,,---,0.00,VWS V14.01,2013-03-09 19:32:00,
2013-03-09 14:37:00,0.0,0.0,30.23,North,0,0.0,0.0,0,0.00,,---,0.00,VWS V14.01,2013-03-09 19:37:00,
2013-03-09 14:42:00,0.0,0.0,30.23,North,0,0.0,0.0,0,0.00,,---,0.00,VWS V14.01,2013-03-09 19:42:00,
2013-03-09 14:47:00,0.0,0.0,30.23,North,0,0.0,0.0,0,0.00,,---,0.00,VWS V14.01,2013-03-09 19:47:00,
2013-03-09 14:52:00,0.0,0.0,30.23,North,0,0.0,0.0,0,0.00,,---,0.00,VWS V14.01,2013-03-09 19:52:00,
2013-03-09 14:57:00,0.0,0.0,30.23,North,0,0.0,0.0,0,0.00,,---,0.00,VWS V14.01,2013-03-09 19:57:00,
2013-03-09 15:00:00,0.0,0.0,30.23,North,0,0.0,0.0,0,0.00,,---,0.00,VWS V14.01,2013-03-09 20:00:00,
2013-03-09 15:02:00,0.0,0.0,30.23,North,0,0.0,0.0,0,0.00,,---,0.00,VWS V14.01,2013-03-09 20:02:00,
2013-03-09 15:07:00,0.0,0.0,30.23,North,0,0.0,0.0,0,0.00,,---,0.00,VWS V14.01,2013-03-09 20:07:00,
2013-03-09 15:12:00,0.0,0.0,30.23,North,0,0.0,0.0,0,0.00,,---,0.00,VWS V14.01,2013-03-09 20:12:00,
2013-03-09 15:17:00,0.0,0.0,30.22,North,0,0.0,0.0,0,0.00,,---,0.00,VWS V14.01,2013-03-09 20:17:00,
2013-03-09 15:22:00,0.0,0.0,30.22,North,0,0.0,0.0,0,0.00,,---,0.00,VWS V14.01,2013-03-09 20:22:00,
2013-03-09 15:27:00,0.0,0.0,30.22,North,0,0.0,0.0,0,0.00,,---,0.00,VWS V14.01,2013-03-09 20:27:00,
2013-03-09 15:30:00,53.0,41.2,30.22,SW,231,9.0,9.0,64,0.00,,---,0.00,VWS V14.01,2013-03-09 20:30:00,
2013-03-09 15:32:00,53.0,41.2,30.22,SW,218,7.0,10.0,64,0.00,,---,0.00,VWS V14.01,2013-03-09 20:32:00,
2013-03-09 15:36:00,53.1,41.3,30.22,WSW,241,5.0,10.0,64,0.00,,---,0.00,VWS V14.01,2013-03-09 20:36:00,
2013-03-09 15:41:00,52.9,40.2,30.22,SW,228,7.0,11.0,62,0.00,,---,0.00,VWS V14.01,2013-03-09 20:41:00,
2013-03-09 15:46:00,52.8,41.4,30.22,SW,222,0.0,11.0,65,0.00,,---,0.00,VWS V14.01,2013-03-09 20:46:00,
2013-03-09 15:51:00,53.1,41.7,30.22,SW,233,0.0,11.0,65,0.00,,---,0.00,VWS V14.01,2013-03-09 20:51:00,
2013-03-09 15:56:00,53.2,41.8,30.22,SW,221,0.0,11.0,65,0.00,,---,0.00,VWS V14.01,2013-03-09 20:56:00,
2013-03-09 16:00:00,53.2,41.0,30.21,SW,223,0.0,11.0,63,0.00,,---,0.00,VWS V14.01,2013-03-09 21:00:00,
2013-03-09 16:01:00,53.1,40.8,30.21,SW,226,0.0,0.0,63,0.00,,---,0.00,VWS V14.01,2013-03-09 21:01:00,
2013-03-09 16:06:00,53.0,41.2,30.21,SW,219,0.0,0.0,64,0.00,,---,0.00,VWS V14.01,2013-03-09 21:06:00,
2013-03-09 16:11:00,53.1,41.3,30.21,SW,221,0.0,0.0,64,0.00,,---,0.00,VWS V14.01,2013-03-09 21:11:00,
2013-03-09 16:16:00,53.2,41.3,30.21,SW,222,0.0,0.0,64,0.00,,---,0.00,VWS V14.01,2013-03-09 21:16:00,
2013-03-09 16:21:00,53.3,40.6,30.21,SW,222,0.0,0.0,62,0.00,,---,0.00,VWS V14.01,2013-03-09 21:21:00,
2013-03-09 16:26:00,53.2,40.5,30.21,SW,221,0.0,0.0,62,0.00,,---,0.00,VWS V14.01,2013-03-09 21:26:00,
2013-03-09 16:30:00,53.3,41.5,30.21,SW,219,0.0,0.0,64,0.00,,---,0.00,VWS V14.01,2013-03-09 21:30:00,
2013-03-09 16:31:00,53.3,41.5,30.21,SSW,209,0.0,0.0,64,0.00,,---,0.00,VWS V14.01,2013-03-09 21:31:00,
2013-03-09 16:36:00,53.4,41.9,30.21,SW,232,0.0,0.0,65,0.00,,---,0.00,VWS V14.01,2013-03-09 21:36:00,
2013-03-09 16:41:00,53.5,42.4,30.21,SW,232,0.0,0.0,66,0.00,,---,0.00,VWS V14.01,2013-03-09 21:41:00,
2013-03-09 16:46:00,53.5,42.4,30.21,SW,232,0.0,0.0,66,0.00,,---,0.00,VWS V14.01,2013-03-09 21:46:00,
2013-03-09 16:51:00,53.5,42.4,30.21,WSW,244,0.0,0.0,66,0.00,,---,0.00,VWS V14.01,2013-03-09 21:51:00,
2013-03-09 16:56:00,53.4,42.3,30.22,SW,228,0.0,0.0,66,0.00,,---,0.00,VWS V14.01,2013-03-09 21:56:00,
2013-03-09 17:00:00,53.3,42.6,30.21,SW,230,0.0,0.0,67,0.00,,---,0.00,VWS V14.01,2013-03-09 22:00:00,
2013-03-09 17:01:00,53.3,42.6,30.21,SW,232,0.0,0.0,67,0.00,,---,0.00,VWS V14.01,2013-03-09 22:01:00,
2013-03-09 17:06:00,53.2,42.5,30.22,SW,235,0.0,0.0,67,0.00,,---,0.00,VWS V14.01,2013-03-09 22:06:00,
2013-03-09 17:11:00,53.3,42.2,30.22,SW,235,0.0,0.0,66,0.00,,---,0.00,VWS V14.01,2013-03-09 22:11:00,
2013-03-09 17:16:00,53.2,42.5,30.22,SW,236,0.0,0.0,67,0.00,,---,0.00,VWS V14.01,2013-03-09 22:16:00,
2013-03-09 17:21:00,53.1,42.5,30.22,SW,236,0.0,0.0,67,0.00,,---,0.00,VWS V14.01,2013-03-09 22:21:00,
2013-03-09 17:26:00,52.9,42.3,30.22,SW,217,0.0,0.0,67,0.00,,---,0.00,VWS V14.01,2013-03-09 22:26:00,
2013-03-09 17:30:00,52.8,42.2,30.22,SW,224,0.0,0.0,67,0.00,,---,0.00,VWS V14.01,2013-03-09 22:30:00,
2013-03-09 17:31:00,52.8,42.2,30.21,SW,224,0.0,0.0,67,0.00,,---,0.00,VWS V14.01,2013-03-09 22:31:00,
2013-03-09 17:36:00,52.8,42.2,30.22,SW,225,0.0,0.0,67,0.00,,---,0.00,VWS V14.01,2013-03-09 22:36:00,
2013-03-09 17:41:00,52.7,42.1,30.22,SW,225,0.0,0.0,67,0.00,,---,0.00,VWS V14.01,2013-03-09 22:41:00,
2013-03-09 17:46:00,52.7,42.1,30.22,SW,225,0.0,0.0,67,0.00,,---,0.00,VWS V14.01,2013-03-09 22:46:00,
2013-03-09 17:51:00,52.6,42.3,30.22,SW,228,0.0,0.0,68,0.00,,---,0.00,VWS V14.01,2013-03-09 22:51:00,
2013-03-09 17:56:00,52.6,42.0,30.23,SW,228,0.0,0.0,67,0.00,,---,0.00,VWS V14.01,2013-03-09 22:56:00,
2013-03-09 18:00:00,52.6,42.0,30.22,SW,228,0.0,0.0,67,0.00,,---,0.00,VWS V14.01,2013-03-09 23:00:00,
2013-03-09 18:01:00,52.6,42.0,30.22,SW,228,0.0,0.0,67,0.00,,---,0.00,VWS V14.01,2013-03-09 23:01:00,
2013-03-09 18:06:00,52.5,41.9,30.22,SW,228,0.0,0.0,67,0.00,,---,0.00,VWS V14.01,2013-03-09 23:06:00,
2013-03-09 18:11:00,52.6,42.0,30.23,SW,228,0.0,0.0,67,0.00,,---,0.00,VWS V14.01,2013-03-09 23:11:00,
2013-03-09 18:30:00,52.1,41.5,30.23,SW,229,0.0,0.0,67,0.00,,---,0.00,VWS V14.01,2013-03-09 23:30:00,
2013-03-09 18:44:00,51.5,40.9,30.23,SW,232,0.0,0.0,67,0.00,,---,0.00,VWS V14.01,2013-03-09 23:44:00,
2013-03-09 18:49:00,51.5,40.9,30.23,SW,232,0.0,0.0,67,0.00,,---,0.00,VWS V14.01,2013-03-09 23:49:00,
2013-03-09 18:54:00,51.5,40.9,30.23,ENE,61,0.0,0.0,67,0.00,,---,0.00,VWS V14.01,2013-03-09 23:54:00,
2013-03-09 18:59:00,51.5,40.9,30.23,ENE,61,0.0,0.0,67,0.00,,---,0.00,VWS V14.01,2013-03-09 23:59:00,
2013-03-09 19:00:00,51.5,40.9,30.25,ENE,61,0.0,0.0,67,0.00,,---,0.00,VWS V14.01,2013-03-10 00:00:00,
2013-03-09 19:04:00,51.5,40.9,30.24,ENE,61,0.0,0.0,67,0.00,,---,0.00,VWS V14.01,2013-03-10 00:04:00,
2013-03-09 19:09:00,51.5,40.9,30.24,ENE,61,0.0,0.0,67,0.00,,---,0.00,VWS V14.01,2013-03-10 00:09:00,
2013-03-09 19:14:00,51.5,40.9,30.24,ENE,61,0.0,0.0,67,0.00,,---,0.00,VWS V14.01,2013-03-10 00:14:00,
2013-03-09 19:19:00,51.5,40.9,30.24,ENE,61,0.0,0.0,67,0.00,,---,0.00,VWS V14.01,2013-03-10 00:19:00,
2013-03-09 19:24:00,51.5,40.9,30.24,ENE,61,0.0,0.0,67,0.00,,---,0.00,VWS V14.01,2013-03-10 00:24:00,
2013-03-09 19:29:00,51.5,40.9,30.24,ENE,61,0.0,0.0,67,0.00,,---,0.00,VWS V14.01,2013-03-10 00:29:00,
2013-03-09 19:30:00,51.5,40.9,30.25,ENE,61,0.0,0.0,67,0.00,,---,0.00,VWS V14.01,2013-03-10 00:30:00,
2013-03-09 19:34:00,51.5,40.9,30.25,ENE,61,0.0,0.0,67,0.00,,---,0.00,VWS V14.01,2013-03-10 00:34:00,
2013-03-09 19:39:00,51.5,40.9,30.25,ENE,61,0.0,0.0,67,0.00,,---,0.00,VWS V14.01,2013-03-10 00:39:00,
2013-03-09 19:44:00,51.5,40.9,30.25,ENE,61,0.0,0.0,67,0.00,,---,0.00,VWS V14.01,2013-03-10 00:44:00,
2013-03-09 19:49:00,51.5,40.9,30.25,ENE,61,0.0,0.0,67,0.00,,---,0.00,VWS V14.01,2013-03-10 00:49:00,
2013-03-09 19:54:00,51.5,40.9,30.25,ENE,61,0.0,0.0,67,0.00,,---,0.00,VWS V14.01,2013-03-10 00:54:00,
2013-03-09 19:59:00,51.5,40.9,30.25,ENE,61,0.0,0.0,67,0.00,,---,0.00,VWS V14.01,2013-03-10 00:59:00,
2013-03-09 20:00:00,51.5,40.9,30.26,ENE,61,0.0,0.0,67,0.00,,---,0.00,VWS V14.01,2013-03-10 01:00:00,
2013-03-09 20:04:00,51.5,40.9,30.25,ENE,61,0.0,0.0,67,0.00,,---,0.00,VWS V14.01,2013-03-10 01:04:00,
2013-03-09 20:09:00,51.5,40.9,30.25,ENE,61,0.0,0.0,67,0.00,,---,0.00,VWS V14.01,2013-03-10 01:09:00,
2013-03-09 20:14:00,51.5,40.9,30.25,ENE,61,0.0,0.0,67,0.00,,---,0.00,VWS V14.01,2013-03-10 01:14:00,
2013-03-09 20:19:00,51.5,40.9,30.25,ENE,61,0.0,0.0,67,0.00,,---,0.00,VWS V14.01,2013-03-10 01:19:00,
2013-03-09 20:24:00,51.5,40.9,30.25,ENE,61,0.0,0.0,67,0.00,,---,0.00,VWS V14.01,2013-03-10 01:24:00,
2013-03-09 20:29:00,51.5,40.9,30.25,ENE,61,0.0,0.0,67,0.00,,---,0.00,VWS V14.01,2013-03-10 01:29:00,
2013-03-09 20:30:00,51.5,40.9,30.26,ENE,61,0.0,0.0,67,0.00,,---,0.00,VWS V14.01,2013-03-10 01:30:00,
2013-03-09 20:34:00,51.5,40.9,30.25,ENE,61,0.0,0.0,67,0.00,,---,0.00,VWS V14.01,2013-03-10 01:34:00,
2013-03-09 20:39:00,51.5,40.9,30.25,ENE,61,0.0,0.0,67,0.00,,---,0.00,VWS V14.01,2013-03-10 01:39:00,
2013-03-09 20:44:00,51.5,40.9,30.25,ENE,61,0.0,0.0,67,0.00,,---,0.00,VWS V14.01,2013-03-10 01:44:00,
2013-03-09 20:49:00,51.5,40.9,30.25,ENE,61,0.0,0.0,67,0.00,,---,0.00,VWS V14.01,2013-03-10 01:49:00,
2013-03-09 20:54:00,51.5,40.9,30.25,ENE,61,0.0,0.0,67,0.00,,---,0.00,VWS V14.01,2013-03-10 01:54:00,
2013-03-09 20:59:00,51.5,40.9,30.26,ENE,61,0.0,0.0,67,0.00,,---,0.00,VWS V14.01,2013-03-10 01:59:00,
2013-03-09 21:00:00,51.5,40.9,30.25,ENE,61,0.0,0.0,67,0.00,,---,0.00,VWS V14.01,2013-03-10 02:00:00,
2013-03-09 21:04:00,51.5,40.9,30.26,ENE,61,0.0,0.0,67,0.00,,---,0.00,VWS V14.01,2013-03-10 02:04:00,
2013-03-09 21:09:00,51.5,40.9,30.26,ENE,61,0.0,0.0,67,0.00,,---,0.00,VWS V14.01,2013-03-10 02:09:00,
2013-03-09 21:14:00,51.5,40.9,30.26,ENE,61,0.0,0.0,67,0.00,,---,0.00,VWS V14.01,2013-03-10 02:14:00,
2013-03-09 21:19:00,51.5,40.9,30.26,ENE,61,0.0,0.0,67,0.00,,---,0.00,VWS V14.01,2013-03-10 02:19:00,
2013-03-09 21:24:00,51.5,40.9,30.26,ENE,61,0.0,0.0,67,0.00,,---,0.00,VWS V14.01,2013-03-10 02:24:00,
2013-03-09 21:29:00,51.5,40.9,30.26,ENE,61,0.0,0.0,67,0.00,,---,0.00,VWS V14.01,2013-03-10 02:29:00,
2013-03-09 21:30:00,51.5,40.9,30.25,ENE,61,0.0,0.0,67,0.00,,---,0.00,VWS V14.01,2013-03-10 02:30:00,
2013-03-09 21:34:00,51.5,40.9,30.25,ENE,61,0.0,0.0,67,0.00,,---,0.00,VWS V14.01,2013-03-10 02:34:00,
2013-03-09 21:39:00,51.5,40.9,30.25,ENE,61,0.0,0.0,67,0.00,,---,0.00,VWS V14.01,2013-03-10 02:39:00,
2013-03-09 21:44:00,51.5,40.9,30.25,ENE,61,0.0,0.0,67,0.00,,---,0.00,VWS V14.01,2013-03-10 02:44:00,
2013-03-09 21:49:00,51.5,40.9,30.25,ENE,61,0.0,0.0,67,0.00,,---,0.00,VWS V14.01,2013-03-10 02:49:00,
2013-03-09 21:54:00,51.5,40.9,30.25,ENE,61,0.0,0.0,67,0.00,,---,0.00,VWS V14.01,2013-03-10 02:54:00,
2013-03-09 21:59:00,51.5,40.9,30.25,ENE,61,0.0,0.0,67,0.00,,---,0.00,VWS V14.01,2013-03-10 02:59:00,
2013-03-09 22:00:00,51.5,40.9,30.26,ENE,61,0.0,0.0,67,0.00,,---,0.00,VWS V14.01,2013-03-10 03:00:00,
2013-03-09 22:04:00,51.5,40.9,30.25,ENE,61,0.0,0.0,67,0.00,,---,0.00,VWS V14.01,2013-03-10 03:04:00,
2013-03-09 22:09:00,51.5,40.9,30.25,ENE,61,0.0,0.0,67,0.00,,---,0.00,VWS V14.01,2013-03-10 03:09:00,
2013-03-09 22:14:00,51.5,40.9,30.25,ENE,61,0.0,0.0,67,0.00,,---,0.00,VWS V14.01,2013-03-10 03:14:00,
2013-03-09 22:19:00,51.5,40.9,30.25,ENE,61,0.0,0.0,67,0.00,,---,0.00,VWS V14.01,2013-03-10 03:19:00,
2013-03-09 22:24:00,51.5,40.9,30.25,ENE,61,0.0,0.0,67,0.00,,---,0.00,VWS V14.01,2013-03-10 03:24:00,
2013-03-09 22:29:00,51.5,40.9,30.25,ENE,61,0.0,0.0,67,0.00,,---,0.00,VWS V14.01,2013-03-10 03:29:00,
2013-03-09 22:30:00,51.5,40.9,30.25,ENE,61,0.0,0.0,67,0.00,,---,0.00,VWS V14.01,2013-03-10 03:30:00,
2013-03-09 22:34:00,51.5,40.9,30.25,ENE,61,0.0,0.0,67,0.00,,---,0.00,VWS V14.01,2013-03-10 03:34:00,
2013-03-09 22:39:00,51.5,40.9,30.25,ENE,61,0.0,0.0,67,0.00,,---,0.00,VWS V14.01,2013-03-10 03:39:00,
2013-03-09 22:44:00,51.5,40.9,30.25,ENE,61,0.0,0.0,67,0.00,,---,0.00,VWS V14.01,2013-03-10 03:44:00,
2013-03-09 22:49:00,51.5,40.9,30.25,ENE,61,0.0,0.0,67,0.00,,---,0.00,VWS V14.01,2013-03-10 03:49:00,
2013-03-09 22:54:00,51.5,40.9,30.25,ENE,61,0.0,0.0,67,0.00,,---,0.00,VWS V14.01,2013-03-10 03:54:00,
2013-03-09 22:59:00,51.5,40.9,30.25,ENE,61,0.0,0.0,67,0.00,,---,0.00,VWS V14.01,2013-03-10 03:59:00,
2013-03-09 23:00:00,51.5,40.9,30.25,ENE,61,0.0,0.0,67,0.00,,---,0.00,VWS V14.01,2013-03-10 04:00:00,
2013-03-09 23:04:00,51.5,40.9,30.26,ENE,61,0.0,0.0,67,0.00,,---,0.00,VWS V14.01,2013-03-10 04:04:00,
2013-03-09 23:09:00,51.5,40.9,30.26,ENE,61,0.0,0.0,67,0.00,,---,0.00,VWS V14.01,2013-03-10 04:09:00,
2013-03-09 23:14:00,51.5,40.9,30.25,ENE,61,0.0,0.0,67,0.00,,---,0.00,VWS V14.01,2013-03-10 04:14:00,
2013-03-09 23:19:00,51.5,40.9,30.25,ENE,61,0.0,0.0,67,0.00,,---,0.00,VWS V14.01,2013-03-10 04:19:00,
2013-03-09 23:24:00,51.5,40.9,30.25,ENE,61,0.0,0.0,67,0.00,,---,0.00,VWS V14.01,2013-03-10 04:24:00,
2013-03-09 23:29:00,51.5,40.9,30.25,ENE,61,0.0,0.0,67,0.00,,---,0.00,VWS V14.01,2013-03-10 04:29:00,
2013-03-09 23:30:00,51.5,40.9,30.25,ENE,61,0.0,0.0,67,0.00,,---,0.00,VWS V14.01,2013-03-10 04:30:00,
2013-03-09 23:34:00,51.5,40.9,30.26,ENE,61,0.0,0.0,67,0.00,,---,0.00,VWS V14.01,2013-03-10 04:34:00,
2013-03-09 23:39:00,51.5,40.9,30.25,ENE,61,0.0,0.0,67,0.00,,---,0.00,VWS V14.01,2013-03-10 04:39:00,
2013-03-09 23:44:00,51.5,40.9,30.25,ENE,61,0.0,0.0,67,0.00,,---,0.00,VWS V14.01,2013-03-10 04:44:00,
2013-03-09 23:49:00,51.5,40.9,30.25,ENE,61,0.0,0.0,67,0.00,,---,0.00,VWS V14.01,2013-03-10 04:49:00,
2013-03-09 23:54:00,51.5,40.9,30.25,ENE,61,0.0,0.0,67,0.00,,---,0.00,VWS V14.01,2013-03-10 04:54:00,
2013-03-09 23:59:00,51.5,40.9,30.25,ENE,61,0.0,0.0,67,0.00,,---,0.00,VWS V14.01,2013-03-10 04:59:00,